»·PEaware :: UAL576 KORD-KABQ

UAL576 :: KORD-KABQ

FLIGHT INFORMATION

Flight Status: Arrived
Operator:
United Airlines
More flights by this operator :: More flights under this callsign
Pilot: Anonymous 8274 (8274)
Aircraft: BOEING 737-300
(B733)
More flights by this aircraft type
Origin: KORD Chicago-O'Hare Intl
United States
Destination: KABQ Albuquerque Intl Sunport
United States
More flights between these airports :: More routes between these airports
Route: ACITO RBS J71 GORDO J80 SPI J35 STL J24 SLN ICT J21 IRW J6 TCC COLTR3
File this flight plan on PilotEdge
Remarks:
Altitude:
(Current/Filed)
30,000ft
Speed:
(Current/Filed)
460kts
Departed: 20-Oct-18 06:56 PM
Arrived: 20-Oct-18 08:08 PM
Distance/Time
Traveled:
969nm/1:12
Distance/Time
To Go:
Arrived

Flight Plot

Page will automatically refresh every two minutes.

Flight plan parsing failed; only flown route is shown


Map Options




Map Legend


Flown Route
Filed Route
Departure Airport
Arrival Airport
Navaid (VOR, NDB)
Fix

Horizontal Profiles

Position Reports

Time Latitude Longitude Heading Altitude Ground
Speed
20-Oct-18 18:57 35.861019 -97.603925 183 30330ft 427kts
20-Oct-18 18:58 35.743786 -97.605135 183 30367ft 427kts
20-Oct-18 18:59 35.625960 -97.606364 183 30374ft 427kts
20-Oct-18 19:00 35.508228 -97.607589 183 30373ft 427kts
20-Oct-18 19:01 35.390745 -97.611930 198 30359ft 421kts
20-Oct-18 19:02 35.335390 -97.698449 267 30330ft 424kts
20-Oct-18 19:03 35.354662 -97.864337 267 30372ft 423kts
20-Oct-18 19:04 35.353355 -97.984036 266 30373ft 423kts
20-Oct-18 19:05 35.350683 -98.151344 266 30373ft 423kts
20-Oct-18 19:06 35.348635 -98.270195 266 30373ft 422kts
20-Oct-18 19:07 35.345567 -98.436959 266 30373ft 422kts
20-Oct-18 19:08 35.343234 -98.556067 266 30373ft 422kts
20-Oct-18 19:09 35.340330 -98.696977 265 30360ft 422kts
20-Oct-18 19:10 35.337219 -98.839813 265 30373ft 421kts
20-Oct-18 19:11 35.332817 -98.981964 265 30374ft 421kts
20-Oct-18 19:12 35.329300 -99.123745 265 30401ft 421kts
20-Oct-18 19:13 35.325671 -99.266293 265 30400ft 421kts
20-Oct-18 19:14 35.321888 -99.408443 265 30400ft 420kts
20-Oct-18 19:15 35.317857 -99.553277 266 30377ft 431kts
20-Oct-18 19:16 35.313659 -99.698406 265 30360ft 430kts
20-Oct-18 19:17 35.309305 -99.842769 265 30374ft 430kts
20-Oct-18 19:18 35.304755 -99.987728 265 30373ft 430kts
20-Oct-18 19:19 35.300008 -100.133188 265 30373ft 430kts
20-Oct-18 19:20 35.295105 -100.277933 265 30399ft 429kts
20-Oct-18 19:21 35.289927 -100.425345 265 30407ft 444kts
20-Oct-18 19:22 35.284498 -100.575126 265 30400ft 443kts
20-Oct-18 19:23 35.278892 -100.724715 265 30428ft 443kts
20-Oct-18 19:24 35.273102 -100.874118 265 30427ft 444kts
20-Oct-18 19:25 35.267109 -101.023907 265 30428ft 444kts
20-Oct-18 19:26 35.260921 -101.173873 265 30428ft 444kts
20-Oct-18 19:27 35.254543 -101.323976 265 30427ft 445kts
20-Oct-18 19:28 35.247970 -101.474238 264 30428ft 445kts
20-Oct-18 19:29 35.241225 -101.624188 264 30428ft 445kts
20-Oct-18 19:30 35.234112 -101.773913 264 30433ft 444kts
20-Oct-18 19:31 35.230624 -101.924351 265 30427ft 444kts
20-Oct-18 19:32 35.227386 -102.074340 265 30428ft 444kts
20-Oct-18 19:33 35.223961 -102.224474 265 30428ft 444kts
20-Oct-18 19:34 35.220352 -102.374541 265 30427ft 444kts
20-Oct-18 19:35 35.216551 -102.524879 265 30469ft 447kts
20-Oct-18 19:36 35.212586 -102.673916 265 30420ft 445kts
20-Oct-18 19:37 35.208378 -102.822585 265 30454ft 444kts
20-Oct-18 19:38 35.203880 -102.972526 265 30425ft 444kts
20-Oct-18 19:39 35.199184 -103.122218 265 30428ft 445kts
20-Oct-18 19:40 35.194292 -103.272289 265 30428ft 445kts
20-Oct-18 19:41 35.189201 -103.422709 265 30427ft 446kts
20-Oct-18 19:42 35.183942 -103.572659 265 30428ft 446kts
20-Oct-18 19:43 35.177021 -103.722578 264 30425ft 445kts
20-Oct-18 19:44 35.170428 -103.872810 264 30428ft 446kts
20-Oct-18 19:45 35.163692 -104.022740 264 30427ft 446kts
20-Oct-18 19:46 35.156744 -104.173214 264 30431ft 449kts
20-Oct-18 19:47 35.149632 -104.323231 264 30425ft 446kts
20-Oct-18 19:48 35.142340 -104.473115 264 30476ft 446kts
20-Oct-18 19:49 35.134860 -104.623020 264 30511ft 446kts
20-Oct-18 19:50 35.127334 -104.770551 263 30509ft 446kts
20-Oct-18 19:51 35.119484 -104.920498 263 30509ft 446kts
20-Oct-18 19:52 35.108633 -105.069969 255 30511ft 443kts
20-Oct-18 19:53 35.084472 -105.215585 256 29728ft 439kts
20-Oct-18 19:54 35.061422 -105.362232 257 26671ft 440kts
20-Oct-18 19:55 35.039202 -105.502433 257 24698ft 418kts
20-Oct-18 19:56 35.017671 -105.635404 257 22897ft 387kts
20-Oct-18 19:57 34.998158 -105.757029 257 21497ft 353kts
20-Oct-18 19:58 34.979662 -105.871466 258 20185ft 345kts
20-Oct-18 19:59 34.960261 -105.988880 259 18645ft 389kts
20-Oct-18 20:00 34.957436 -106.113765 271 18014ft 386kts
20-Oct-18 20:01 34.958339 -106.244368 269 15097ft 371kts
20-Oct-18 20:02 34.957037 -106.357711 268 13712ft 316kts
20-Oct-18 20:03 34.955888 -106.458389 266 11741ft 298kts
20-Oct-18 20:04 34.950846 -106.556624 239 10013ft 287kts
20-Oct-18 20:05 34.905184 -106.622171 243 9038ft 242kts
20-Oct-18 20:06 34.923772 -106.688150 328 7796ft 218kts
20-Oct-18 20:07 34.974338 -106.684510 35 6933ft 179kts
20-Oct-18 20:08 35.007840 -106.648025 48 5881ft 163kts
20-Oct-18 20:09 35.035773 -106.614267 46 5316ft 96kts
20-Oct-18 20:10 35.042418 -106.608167 270 5316ft 12kts
20-Oct-18 20:11 35.042419 -106.608278 270 5316ft 0kts
20-Oct-18 20:12 35.042422 -106.608588 270 5316ft 5kts
20-Oct-18 20:13 35.042437 -106.611943 270 5316ft 13kts
20-Oct-18 20:14 35.044825 -106.613759 0 5316ft 16kts

Navigation Log

Ident Type
Flight plan parsing failed, navigation log unavailable